createdAt,value
2018-12-14T00:26:17.945Z,48.10
2018-12-14T00:39:25.343Z,48.30
2018-12-14T00:52:32.630Z,48.30
2018-12-14T01:19:37.645Z,48.70
2018-12-14T01:33:00.532Z,48.80
2018-12-14T01:46:23.217Z,49.00
2018-12-14T01:59:46.048Z,49.10
2018-12-14T02:13:08.856Z,49.20
2018-12-14T02:26:31.670Z,49.30
2018-12-14T02:39:54.480Z,49.40
2018-12-14T02:53:17.397Z,49.40
2018-12-14T03:19:41.775Z,49.60
2018-12-14T03:32:48.945Z,49.60
2018-12-14T03:45:56.085Z,49.70
2018-12-14T03:59:03.393Z,50.40
2018-12-14T04:12:10.530Z,49.80
2018-12-14T04:25:17.691Z,49.90
2018-12-14T04:38:41.546Z,49.90
2018-12-14T04:52:04.344Z,50.00
2018-12-14T05:18:28.818Z,50.10
2018-12-14T05:31:36.111Z,50.10
2018-12-14T05:44:43.265Z,50.10
2018-12-14T05:57:50.458Z,50.10
2018-12-14T06:37:07.401Z,49.70
2018-12-14T07:03:20.300Z,49.40
2018-12-14T07:16:27.507Z,49.40
2018-12-14T07:29:34.684Z,45.80
2018-12-14T07:42:41.924Z,39.80
2018-12-14T07:55:49.111Z,42.80
2018-12-14T08:08:56.253Z,44.10
2018-12-14T08:22:20.029Z,44.60
2018-12-14T08:35:42.922Z,45.00
2018-12-14T08:49:05.757Z,45.30
2018-12-14T09:02:28.435Z,45.90
2018-12-14T09:15:51.310Z,46.30
2018-12-14T09:29:14.228Z,46.70
2018-12-14T09:42:36.928Z,47.00
2018-12-14T09:55:59.753Z,47.30
2018-12-14T10:09:22.649Z,47.50
2018-12-14T10:22:45.396Z,47.80
2018-12-14T10:36:08.316Z,48.00
2018-12-14T10:49:31.158Z,48.50
2018-12-14T11:02:53.820Z,48.50
2018-12-14T11:16:16.887Z,48.40
2018-12-14T11:29:39.457Z,49.50
2018-12-14T11:43:02.257Z,48.80
2018-12-14T11:56:25.049Z,49.10
2018-12-14T12:09:47.977Z,49.10
2018-12-14T12:23:10.713Z,49.30
2018-12-14T12:36:33.523Z,49.20
2018-12-14T12:49:56.343Z,49.20
2018-12-14T13:03:19.895Z,49.20
2018-12-14T13:16:41.998Z,49.20
2018-12-14T13:30:04.797Z,49.20
2018-12-14T13:43:27.603Z,49.20
2018-12-14T13:56:50.456Z,49.10
2018-12-14T14:10:13.251Z,49.10
2018-12-14T14:23:36.142Z,49.10
2018-12-14T14:36:59.055Z,49.10
2018-12-14T14:50:21.714Z,49.10
2018-12-14T15:03:44.508Z,48.60
2018-12-14T15:17:07.421Z,48.50
2018-12-14T15:30:30.220Z,48.90
2018-12-14T15:43:53.049Z,49.00
2018-12-14T15:57:15.765Z,49.00
2018-12-14T16:10:38.702Z,48.90
2018-12-14T16:24:01.420Z,48.90
2018-12-14T16:37:24.331Z,49.00
2018-12-14T16:50:47.052Z,48.70
2018-12-14T17:04:09.974Z,48.60
2018-12-14T17:17:32.675Z,48.40
2018-12-14T17:30:55.558Z,48.30
2018-12-14T17:44:18.415Z,48.70
2018-12-14T17:57:41.120Z,48.60
2018-12-14T18:11:03.961Z,48.60
2018-12-14T18:24:26.860Z,48.70
2018-12-14T18:37:49.655Z,48.80
2018-12-14T18:51:12.380Z,40.10
2018-12-14T19:04:35.192Z,43.60
2018-12-14T19:17:58.010Z,44.60
2018-12-14T19:31:20.831Z,45.10
2018-12-14T19:44:43.649Z,45.60
2018-12-14T19:58:06.449Z,45.90
2018-12-14T20:11:30.591Z,46.10
2018-12-14T20:24:52.070Z,47.10
2018-12-14T20:38:14.986Z,46.50
2018-12-14T20:51:38.469Z,46.70
2018-12-14T21:05:00.556Z,46.80
2018-12-14T21:31:25.543Z,47.10
2018-12-14T21:44:32.889Z,47.20
2018-12-14T21:57:40.047Z,47.20
2018-12-14T22:10:47.871Z,47.30
2018-12-14T22:24:12.000Z,47.20
2018-12-14T22:37:34.821Z,47.40
2018-12-14T22:50:57.536Z,47.40
2018-12-14T23:04:20.350Z,47.40
2018-12-14T23:17:43.184Z,47.50
2018-12-14T23:31:05.953Z,47.50
2018-12-14T23:44:29.115Z,47.70
2018-12-14T23:57:51.700Z,47.80
